Метеостанция


АнтоновUKKM 152230Z AUTO 34003MPS 9999 // NSC 21/17 Q1016
БориспольUKBB 152230Z 01003MPS CAVOK 20/17 Q1015 R88/CLRD// NOSIG
Гаврышовка (Винница)UKWW 151900Z 35005G10MPS 9999 -TSRA BKN010 BKN015CB 21/20 Q1016 R31/0///65 TEMPO 1000 TSRAGR BKN003 BKN015CB
ДнепропетровскUKDD 152230Z 18002MPS 120V210 CAVOK 22/11 Q1015 R08/090070 NOSIG
ДонецкNo METAR available for UKCC.
ЖуляныUKKK 152230Z 02003MPS 360V070 CAVOK 23/19 Q1015 R08/CLRD70 NOSIG
Запорожье(Мокрая)UKDE 152200Z 04002MPS CAVOK 24/10 Q1014 R02R/CLRD70 NOSIG
Ивано-ФранковскUKLI 152230Z 00000MPS 4600 BR SCT036 17/17 Q1018 R28/290065 NOSIG
Кривой РогUKDR 152230Z 05001MPS CAVOK 25/09 Q1014 R18/09//70 NOSIG
ЛуганскNo METAR available for UKCW.
ЛьвовUKLL 152230Z 00000MPS CAVOK 18/16 Q1019 R31/CLRD// NOSIG
МариупольNo METAR available for UKCM.
НиколаевUKON 151400Z 18002MPS 110V230 CAVOK 34/10 Q1013 R04/090075 NOSIG
ОдессаUKOO 152230Z 00000MPS CAVOK 23/11 Q1013 R16/090060 NOSIG
РовноUKLR 151500Z 34003MPS 9999 SCT026 21/17 Q1016 R29/090070 NOSIG
СимферопольNo METAR available for UKFF.
УжгородUKLU 151900Z 00000MPS 9999 NSC 22/15 Q1016 NOSIG
ХарьковUKHH 152230Z 15002MPS CAVOK 24/10 Q1016 R07/0///72 NOSIG
ЧеркассыNo METAR available for UKKE.
ЧерновцыUKLN 152100Z 30002MPS 240V340 CAVOK 19/19 Q1017 R33/290360 TEMPO 1500 TSRA BKN005 BKN020CB
Скачать:
Скачать этот файл (Metar_шпаргалка.jpg)Расшифровка METAR[ ]4799 Кб
Вся информация, которая имеется в использовании на сайте и доступная для скачивания, получена исключительно из открытых источников информации сети Интернет, всякое совпадение с данными, имеющими ограничения в доступе, случайное и не является преднамеренным.